Time;durP1;ratioP1;P1;durP2;ratioP2;P2;SDS_P1;SDS_P2;PMS_P1;PMS_P2;Temp;Humidity;BMP_temperature;BMP_pressure;BME280_temperature;BME280_humidity;BME280_pressure;Samples;Min_cycle;Max_cycle;Signal;HPM_P1;HPM_P2
2021/07/19 00:00:52;;;;;;;13.27;6.18;;;;;;;15.61;100.00;96958.56;5003812;28;20066;-63
2021/07/19 00:03:18;;;;;;;14.13;7.25;;;;;;;15.47;100.00;96962.91;5014276;28;20046;-63
2021/07/19 00:05:43;;;;;;;12.85;6.72;;;;;;;15.32;100.00;96952.22;5009733;28;20049;-64
2021/07/19 00:08:08;;;;;;;15.85;7.95;;;;;;;15.22;100.00;96962.84;4999047;28;20447;-64
2021/07/19 00:10:34;;;;;;;10.70;6.43;;;;;;;15.19;100.00;96958.13;5002415;28;20038;-64
2021/07/19 00:12:59;;;;;;;11.93;6.78;;;;;;;15.20;100.00;96959.69;5022139;28;20041;-63
2021/07/19 00:15:27;;;;;;;10.52;6.82;;;;;;;15.12;100.00;96958.09;5008495;28;20052;-63
2021/07/19 00:17:53;;;;;;;18.98;7.30;;;;;;;15.15;100.00;96957.31;5023120;28;20049;-63
2021/07/19 00:20:19;;;;;;;13.70;6.40;;;;;;;15.06;100.00;96957.69;5008130;28;20046;-64
2021/07/19 00:22:45;;;;;;;13.60;6.30;;;;;;;14.98;100.00;96955.28;5024658;23;20425;-64
2021/07/19 00:25:15;;;;;;;14.77;6.22;;;;;;;14.96;100.00;96949.38;4992466;28;20038;-64
2021/07/19 00:27:41;;;;;;;;;;;;;;;14.98;100.00;96956.09;5008395;28;20037;-64
2021/07/19 00:30:10;;;;;;;11.52;6.28;;;;;;;15.13;100.00;96964.44;5004524;28;19936;-62
2021/07/19 00:32:36;;;;;;;12.48;5.65;;;;;;;15.15;100.00;96959.31;4998428;28;20046;-63
2021/07/19 00:35:03;;;;;;;13.80;6.60;;;;;;;14.83;100.00;96962.75;4996301;28;20048;-63
2021/07/19 00:37:29;;;;;;;12.50;6.65;;;;;;;14.79;100.00;96953.66;4989202;28;20092;-63
2021/07/19 00:39:54;;;;;;;14.80;6.65;;;;;;;14.79;100.00;96948.16;4982961;28;20050;-63
2021/07/19 00:42:19;;;;;;;11.38;6.50;;;;;;;14.89;100.00;96950.97;4982045;28;20138;-63
2021/07/19 00:44:45;;;;;;;9.25;6.35;;;;;;;15.01;100.00;96946.25;4963568;28;20125;-64
2021/07/19 00:47:10;;;;;;;11.98;6.03;;;;;;;15.12;100.00;96946.28;4977912;28;20034;-64
2021/07/19 00:49:36;;;;;;;10.18;5.65;;;;;;;15.18;100.00;96950.22;4988923;28;20066;-63
2021/07/19 00:52:02;;;;;;;9.85;5.82;;;;;;;15.20;100.00;96947.88;4980197;28;20137;-64
2021/07/19 00:54:29;;;;;;;13.77;5.85;;;;;;;14.98;100.00;96939.56;4976050;28;20128;-63
2021/07/19 00:56:55;;;;;;;13.93;5.93;;;;;;;14.82;100.00;96939.09;4991026;28;20093;-63
2021/07/19 00:59:25;;;;;;;12.02;6.72;;;;;;;14.70;100.00;96940.25;4982048;28;20129;-63
2021/07/19 01:01:54;;;;;;;13.20;6.57;;;;;;;14.61;100.00;96942.56;4993240;28;20513;-63
2021/07/19 01:04:21;;;;;;;9.07;5.90;;;;;;;14.66;100.00;96948.50;4991830;28;20083;-63
2021/07/19 01:06:48;;;;;;;17.90;6.63;;;;;;;14.62;100.00;96941.38;4985363;28;20065;-63
2021/07/19 01:09:14;;;;;;;8.65;5.70;;;;;;;14.62;100.00;96949.66;4978355;28;20042;-63
2021/07/19 01:11:40;;;;;;;9.23;6.05;;;;;;;14.60;100.00;96950.03;4990269;28;20046;-63
2021/07/19 01:14:05;;;;;;;13.82;5.30;;;;;;;14.53;100.00;96947.22;4984348;28;20096;-63
2021/07/19 01:16:31;;;;;;;9.23;5.72;;;;;;;14.45;100.00;96951.91;4980651;28;20756;-64
2021/07/19 01:18:56;;;;;;;13.82;6.45;;;;;;;14.35;100.00;96952.66;4977997;28;20380;-63
2021/07/19 01:21:21;;;;;;;10.05;6.07;;;;;;;14.25;100.00;96947.88;4954323;28;21015;-62
2021/07/19 01:24:02;;;;;;;10.30;6.78;;;;;;;14.20;100.00;96946.25;4979830;28;20061;-63
2021/07/19 01:26:56;;;;;;;10.55;5.68;;;;;;;14.19;100.00;96944.69;4991042;28;20100;-63
2021/07/19 01:29:23;;;;;;;10.77;5.72;;;;;;;14.16;100.00;96948.22;4994586;28;21499;-64
2021/07/19 01:31:50;;;;;;;11.07;6.15;;;;;;;14.10;100.00;96953.28;4996558;28;20087;-62
2021/07/19 01:34:20;;;;;;;11.93;6.88;;;;;;;14.27;100.00;96946.31;4994932;28;20458;-63
2021/07/19 01:36:49;;;;;;;12.10;6.57;;;;;;;14.57;100.00;96950.78;5001497;28;20046;-63
2021/07/19 01:39:16;;;;;;;10.45;6.45;;;;;;;14.78;100.00;96943.81;4998000;28;20034;-63
2021/07/19 01:41:42;;;;;;;16.75;7.40;;;;;;;14.67;100.00;96952.03;5003196;28;20442;-63
2021/07/19 01:44:09;;;;;;;12.90;7.57;;;;;;;14.56;100.00;96954.72;4995582;28;20073;-63
2021/07/19 01:46:36;;;;;;;13.82;6.90;;;;;;;14.21;100.00;96958.88;5002941;28;20049;-62
2021/07/19 01:49:02;;;;;;;13.73;7.40;;;;;;;13.92;100.00;96961.44;5001949;28;20073;-61
2021/07/19 01:51:28;;;;;;;15.57;6.75;;;;;;;13.58;100.00;96958.78;4989145;28;20046;-62
2021/07/19 01:53:56;;;;;;;22.85;8.25;;;;;;;13.51;100.00;96957.94;4995982;28;20046;-62
2021/07/19 01:56:23;;;;;;;12.52;7.60;;;;;;;13.54;100.00;96952.47;4988078;28;20077;-63
2021/07/19 01:58:49;;;;;;;12.02;7.63;;;;;;;13.62;100.00;96952.53;4988766;28;20430;-63
2021/07/19 02:01:16;;;;;;;18.13;7.88;;;;;;;13.87;100.00;96948.00;4981806;28;20141;-63
2021/07/19 02:03:42;;;;;;;13.30;6.80;;;;;;;13.99;100.00;96951.63;4984089;28;20548;-63
2021/07/19 02:06:09;;;;;;;13.25;6.60;;;;;;;14.08;100.00;96949.31;4977297;28;20046;-64
2021/07/19 02:08:36;;;;;;;15.27;7.20;;;;;;;14.06;100.00;96943.41;4985353;28;20046;-63
2021/07/19 02:11:03;;;;;;;10.50;6.47;;;;;;;14.12;100.00;96948.19;4994650;28;20042;-63
2021/07/19 02:13:34;;;;;;;11.63;6.50;;;;;;;14.21;100.00;96941.56;4990185;28;20049;-63
2021/07/19 02:16:01;;;;;;;9.70;6.35;;;;;;;14.29;100.00;96938.44;4985650;28;20054;-63
2021/07/19 02:18:29;;;;;;;12.23;6.28;;;;;;;14.30;100.00;96942.78;4967534;28;20141;-63
2021/07/19 02:20:56;;;;;;;12.77;6.25;;;;;;;14.17;100.00;96943.47;4993869;28;20046;-63
2021/07/19 02:23:24;;;;;;;9.50;6.47;;;;;;;14.16;100.00;96945.44;4985086;28;21014;-62
2021/07/19 02:25:52;;;;;;;9.20;6.05;;;;;;;14.15;100.00;96939.16;4989499;28;20490;-63
2021/07/19 02:28:18;;;;;;;15.07;8.13;;;;;;;14.14;100.00;96942.28;4976830;28;20109;-64
2021/07/19 02:30:44;;;;;;;13.07;7.03;;;;;;;14.07;100.00;96947.75;4981810;28;20034;-64
2021/07/19 02:33:19;;;;;;;11.50;7.03;;;;;;;14.08;100.00;96935.56;4982150;28;20042;-63
2021/07/19 02:35:49;;;;;;;14.65;7.68;;;;;;;14.11;100.00;96937.53;4992720;28;20050;-62
2021/07/19 02:38:16;;;;;;;15.60;7.70;;;;;;;14.01;100.00;96925.31;4991693;28;20038;-64
2021/07/19 02:40:44;;;;;;;14.00;8.07;;;;;;;13.94;100.00;96937.06;4993258;28;20123;-63
2021/07/19 02:43:10;;;;;;;16.20;8.43;;;;;;;13.99;100.00;96935.09;4986439;28;20410;-64
2021/07/19 02:45:44;;;;;;;17.83;9.57;;;;;;;14.06;100.00;96935.97;4994142;28;20050;-64
2021/07/19 02:48:13;;;;;;;20.42;10.75;;;;;;;14.16;100.00;96931.69;4986982;28;20054;-63
2021/07/19 02:50:41;;;;;;;26.88;14.98;;;;;;;14.22;100.00;96938.41;5001885;28;20037;-62
2021/07/19 02:53:09;;;;;;;21.92;11.35;;;;;;;14.26;100.00;96930.97;4996418;28;20041;-66
2021/07/19 02:55:36;;;;;;;21.77;11.50;;;;;;;14.23;100.00;96933.69;5002253;28;20068;-63
2021/07/19 02:58:03;;;;;;;18.08;10.80;;;;;;;14.21;100.00;96933.28;4994486;28;20049;-64
2021/07/19 03:00:29;;;;;;;17.20;9.13;;;;;;;14.23;100.00;96933.69;4995564;28;20160;-64
2021/07/19 03:02:59;;;;;;;16.58;9.45;;;;;;;14.22;100.00;96935.63;4999161;28;20038;-64
2021/07/19 03:05:27;;;;;;;;;;;;;;;14.50;100.00;96939.72;4993463;28;20065;-63
2021/07/19 03:07:54;;;;;;;16.80;8.82;;;;;;;14.70;100.00;96943.00;4993229;28;20011;-63
2021/07/19 03:10:22;;;;;;;17.17;9.65;;;;;;;14.68;100.00;96942.59;4987064;28;20543;-63
2021/07/19 03:12:51;;;;;;;20.00;9.20;;;;;;;14.73;100.00;96939.47;4991367;28;20073;-63
2021/07/19 03:15:17;;;;;;;16.65;9.77;;;;;;;14.63;100.00;96929.19;4983293;28;20053;-63
2021/07/19 03:17:44;;;;;;;22.50;10.18;;;;;;;14.50;100.00;96923.97;4997064;28;20046;-64
2021/07/19 03:20:11;;;;;;;20.85;9.60;;;;;;;14.39;100.00;96930.63;4980611;28;20053;-64
2021/07/19 03:22:39;;;;;;;15.55;9.50;;;;;;;14.34;100.00;96929.03;4990348;28;20043;-64
2021/07/19 03:25:08;;;;;;;18.55;9.57;;;;;;;14.37;100.00;96927.44;4990072;28;20129;-67
2021/07/19 03:27:38;;;;;;;16.92;8.52;;;;;;;14.29;100.00;96934.91;4983660;28;20050;-65
2021/07/19 03:30:08;;;;;;;15.70;9.02;;;;;;;14.47;100.00;96924.75;4995802;28;20049;-63
2021/07/19 03:32:34;;;;;;;18.98;9.80;;;;;;;14.45;100.00;96923.56;4986394;28;20045;-64
2021/07/19 03:35:03;;;;;;;18.52;10.30;;;;;;;14.30;100.00;96915.22;4984505;28;20066;-64
2021/07/19 03:37:29;;;;;;;22.38;11.35;;;;;;;14.26;100.00;96922.69;4976756;28;20140;-63
2021/07/19 03:39:55;;;;;;;24.52;11.15;;;;;;;14.04;100.00;96926.47;4992001;28;20584;-63
2021/07/19 03:42:21;;;;;;;21.08;10.68;;;;;;;13.86;100.00;96920.84;4994624;28;20049;-64
2021/07/19 03:44:48;;;;;;;22.95;11.40;;;;;;;13.77;100.00;96922.00;4994651;28;20069;-64
2021/07/19 03:47:14;;;;;;;19.83;10.93;;;;;;;13.73;100.00;96917.63;4993146;28;20041;-64
2021/07/19 03:49:41;;;;;;;23.55;10.50;;;;;;;13.71;100.00;96914.47;4989555;28;20534;-63
2021/07/19 03:52:06;;;;;;;22.42;10.68;;;;;;;13.69;100.00;96917.59;4974691;28;20387;-63
2021/07/19 03:54:33;;;;;;;22.60;11.40;;;;;;;13.68;100.00;96909.72;4986527;28;20045;-63
2021/07/19 03:57:00;;;;;;;21.65;11.80;;;;;;;13.62;100.00;96911.25;4989345;28;20046;-63
2021/07/19 03:59:27;;;;;;;25.48;12.85;;;;;;;13.61;100.00;96915.16;4975277;28;20852;-64
2021/07/19 04:01:54;;;;;;;24.23;12.23;;;;;;;13.68;100.00;96921.50;4993792;28;20043;-63
2021/07/19 04:04:30;;;;;;;24.80;12.45;;;;;;;13.73;100.00;96917.63;4992729;28;20042;-64
2021/07/19 04:06:59;;;;;;;19.55;10.77;;;;;;;13.82;100.00;96918.09;4994644;28;20050;-62
2021/07/19 04:09:26;;;;;;;22.83;13.18;;;;;;;13.86;100.00;96915.34;4984022;28;20533;-63
2021/07/19 04:11:53;;;;;;;24.33;11.50;;;;;;;13.96;100.00;96917.41;4981521;28;20046;-63
2021/07/19 04:14:20;;;;;;;26.85;11.77;;;;;;;14.02;100.00;96915.84;4978912;28;20041;-63
2021/07/19 04:16:45;;;;;;;27.85;12.25;;;;;;;14.16;100.00;96923.41;4992071;28;20050;-64
2021/07/19 04:19:12;;;;;;;21.30;10.60;;;;;;;14.28;100.00;96925.84;4967641;28;20136;-65
2021/07/19 04:21:39;;;;;;;25.25;11.38;;;;;;;14.43;100.00;96928.69;4992183;28;20065;-64
2021/07/19 04:24:05;;;;;;;18.15;9.85;;;;;;;14.60;100.00;96929.94;4994196;28;20049;-65
2021/07/19 04:26:31;;;;;;;18.58;9.63;;;;;;;14.82;100.00;96931.63;4998722;28;20371;-64
2021/07/19 04:29:00;;;;;;;16.02;8.65;;;;;;;15.12;100.00;96926.97;4991164;28;20129;-64
2021/07/19 04:31:26;;;;;;;18.77;8.88;;;;;;;15.35;100.00;96923.84;4986832;28;20170;-63
2021/07/19 04:33:51;;;;;;;15.05;8.68;;;;;;;15.56;100.00;96920.34;4994936;28;20058;-63
2021/07/19 04:36:17;;;;;;;14.50;8.90;;;;;;;15.74;100.00;96914.81;4975702;28;20081;-63
2021/07/19 04:38:46;;;;;;;12.77;7.75;;;;;;;15.98;100.00;96922.28;4979689;28;20042;-63
2021/07/19 04:41:11;;;;;;;17.58;8.55;;;;;;;16.15;97.54;96917.13;4989641;28;20036;-65
2021/07/19 04:43:37;;;;;;;15.10;7.43;;;;;;;16.18;95.57;96917.13;4990673;28;20050;-64
2021/07/19 04:46:03;;;;;;;20.13;8.40;;;;;;;16.12;94.37;96920.72;4991517;28;20132;-65
2021/07/19 04:48:28;;;;;;;15.50;7.10;;;;;;;16.23;93.76;96915.94;4967728;28;20084;-63
2021/07/19 04:50:53;;;;;;;13.95;7.45;;;;;;;16.34;91.85;96910.38;4998611;28;20042;-63
2021/07/19 04:53:19;;;;;;;17.10;7.40;;;;;;;16.37;92.06;96915.91;4994026;28;20045;-63
2021/07/19 04:55:49;;;;;;;18.23;7.93;;;;;;;16.65;89.93;96921.72;4983031;28;20114;-62
2021/07/19 04:58:16;;;;;;;11.68;6.22;;;;;;;16.88;89.10;96915.72;4976064;28;20046;-64
2021/07/19 05:00:46;;;;;;;15.00;7.32;;;;;;;17.09;87.87;96918.38;4990475;28;20053;-63
2021/07/19 05:03:14;;;;;;;15.10;7.97;;;;;;;16.48;90.72;96912.31;4985119;28;20364;-63
2021/07/19 05:05:40;;;;;;;15.93;8.00;;;;;;;15.60;97.81;96910.84;4975498;28;20049;-63
2021/07/19 05:08:06;;;;;;;23.50;8.10;;;;;;;15.97;96.56;96920.72;4979519;28;20038;-64
2021/07/19 05:10:32;;;;;;;13.80;6.93;;;;;;;16.64;93.85;96915.41;4983159;28;20042;-63
2021/07/19 05:12:58;;;;;;;14.57;7.43;;;;;;;17.30;89.77;96914.66;4993383;28;20049;-62
2021/07/19 05:15:24;;;;;;;15.85;7.45;;;;;;;19.22;80.30;96908.75;4980793;28;20069;-63
2021/07/19 05:17:50;;;;;;;17.73;7.20;;;;;;;21.35;72.19;96914.78;4994398;28;20077;-63
2021/07/19 05:20:21;;;;;;;15.77;6.25;;;;;;;23.45;63.23;96908.78;4990868;28;20740;-63
2021/07/19 05:22:52;;;;;;;14.35;7.78;;;;;;;25.08;55.20;96913.97;4989663;28;20046;-63
2021/07/19 05:25:24;;;;;;;14.65;7.28;;;;;;;25.86;52.70;96914.19;4981491;28;20035;-62
2021/07/19 05:27:58;;;;;;;15.00;6.85;;;;;;;25.96;50.36;96926.22;4975523;28;20579;-63
2021/07/19 05:30:24;;;;;;;18.55;7.13;;;;;;;25.42;53.98;96928.34;4992574;28;20042;-63
2021/07/19 05:32:50;;;;;;;12.68;5.80;;;;;;;26.81;49.96;96918.16;4992892;28;20086;-63
2021/07/19 05:35:19;;;;;;;13.63;7.18;;;;;;;26.83;48.16;96924.88;4997866;28;20132;-63
2021/07/19 05:37:46;;;;;;;13.98;6.85;;;;;;;26.69;48.58;96923.50;4994348;28;20491;-64
2021/07/19 05:40:13;;;;;;;14.13;7.38;;;;;;;26.62;48.36;96915.38;4981975;28;20386;-65
2021/07/19 05:42:41;;;;;;;14.65;7.55;;;;;;;27.99;46.11;96911.84;4981833;28;20539;-64
2021/07/19 05:45:11;;;;;;;15.13;7.50;;;;;;;26.04;50.60;96922.66;4989387;28;20038;-65
2021/07/19 05:47:37;;;;;;;11.57;7.05;;;;;;;23.87;55.87;96925.44;4999330;28;20046;-63
2021/07/19 05:50:04;;;;;;;11.68;6.68;;;;;;;24.10;57.72;96929.09;4991535;28;20045;-64
2021/07/19 05:52:30;;;;;;;18.77;7.75;;;;;;;23.57;58.35;96932.38;4984458;28;20034;-64
2021/07/19 05:54:58;;;;;;;13.68;6.82;;;;;;;25.40;53.72;96925.22;4985889;28;20121;-64
2021/07/19 05:57:25;;;;;;;11.60;7.03;;;;;;;24.27;56.64;96922.09;4985882;28;20938;-64
2021/07/19 05:59:54;;;;;;;11.77;6.65;;;;;;;24.96;54.56;96932.44;4984885;28;20038;-64
2021/07/19 06:02:19;;;;;;;12.97;7.10;;;;;;;23.45;59.83;96915.16;4988321;28;20046;-64
2021/07/19 06:04:44;;;;;;;14.48;7.93;;;;;;;21.72;66.08;96916.31;4992463;28;20816;-63
2021/07/19 06:07:10;;;;;;;20.25;7.93;;;;;;;23.22;61.71;96919.06;4981422;28;20046;-63
2021/07/19 06:09:35;;;;;;;12.65;6.95;;;;;;;22.09;66.02;96928.16;4983354;28;20129;-63
2021/07/19 06:12:01;;;;;;;14.27;7.53;;;;;;;21.89;66.85;96930.25;4981126;28;20839;-63
2021/07/19 06:14:26;;;;;;;19.27;7.53;;;;;;;22.90;63.38;96926.38;4980786;28;20107;-63
2021/07/19 06:16:52;;;;;;;13.40;6.93;;;;;;;23.88;60.23;96926.22;4993582;28;20058;-63
2021/07/19 06:19:18;;;;;;;12.77;7.18;;;;;;;23.57;59.05;96926.78;4994056;28;20038;-63
2021/07/19 06:21:43;;;;;;;11.65;6.40;;;;;;;22.73;61.73;96922.06;4997383;28;20045;-64
2021/07/19 06:24:08;;;;;;;11.00;6.55;;;;;;;23.99;58.92;96930.22;4981084;28;20139;-64
2021/07/19 06:26:34;;;;;;;13.32;7.05;;;;;;;23.78;61.38;96930.91;4990790;28;20039;-64
2021/07/19 06:28:59;;;;;;;16.27;6.80;;;;;;;24.39;56.54;96926.84;4982404;28;20043;-64
2021/07/19 06:31:25;;;;;;;8.40;5.65;;;;;;;24.64;55.10;96930.06;4987984;28;20053;-62
2021/07/19 06:33:50;;;;;;;16.20;7.20;;;;;;;24.19;57.78;96929.94;4992308;28;20038;-64
2021/07/19 06:36:17;;;;;;;11.57;6.30;;;;;;;24.82;56.23;96940.59;4990660;28;20054;-65
2021/07/19 06:38:43;;;;;;;12.93;6.80;;;;;;;24.07;59.02;96941.94;4990826;28;20502;-64
2021/07/19 06:41:11;;;;;;;12.10;7.45;;;;;;;22.09;63.61;96932.94;4994415;28;20046;-63
2021/07/19 06:43:37;;;;;;;13.13;7.17;;;;;;;22.26;63.63;96936.50;4988335;28;20046;-63
2021/07/19 06:46:02;;;;;;;13.75;7.85;;;;;;;21.90;64.97;96935.41;4993968;28;20376;-65
2021/07/19 06:48:28;;;;;;;12.88;7.82;;;;;;;22.67;62.84;96929.41;4988485;28;20088;-64
2021/07/19 06:50:53;;;;;;;13.50;8.15;;;;;;;23.44;61.17;96923.97;4988971;28;20074;-65
2021/07/19 06:53:19;;;;;;;11.27;6.78;;;;;;;23.19;60.14;96928.34;4968878;28;20554;-66
2021/07/19 06:55:44;;;;;;;14.77;6.97;;;;;;;23.46;59.06;96922.31;4982011;28;20069;-64
2021/07/19 06:58:09;;;;;;;11.02;6.85;;;;;;;22.60;60.72;96927.63;4989232;28;20093;-63
2021/07/19 07:00:35;;;;;;;9.82;6.55;;;;;;;21.46;66.53;96926.47;4992020;28;20046;-66
2021/07/19 07:03:00;;;;;;;14.73;8.90;;;;;;;22.58;63.62;96913.31;4989987;28;20042;-63
2021/07/19 07:05:26;;;;;;;18.95;10.70;;;;;;;22.78;60.88;96918.75;4977627;28;20069;-63
2021/07/19 07:07:51;;;;;;;13.10;7.25;;;;;;;23.94;57.49;96907.63;4989924;28;20132;-65
2021/07/19 07:10:17;;;;;;;13.85;7.63;;;;;;;23.17;60.71;96902.06;4981109;28;20042;-64
2021/07/19 07:12:43;;;;;;;12.55;7.60;;;;;;;22.73;62.47;96910.13;4998576;28;20120;-64
2021/07/19 07:15:09;;;;;;;15.52;8.52;;;;;;;22.81;61.40;96909.47;4982740;28;20042;-65
2021/07/19 07:17:35;;;;;;;15.77;7.95;;;;;;;23.34;60.33;96894.38;4990322;28;20089;-63
2021/07/19 07:20:00;;;;;;;13.18;7.00;;;;;;;22.89;62.99;96896.88;4985161;28;20464;-64
2021/07/19 07:22:25;;;;;;;15.80;10.00;;;;;;;22.75;62.60;96896.50;4983238;28;20049;-64
2021/07/19 07:24:51;;;;;;;13.27;7.30;;;;;;;25.19;56.12;96893.94;4989794;28;20046;-64
2021/07/19 07:27:19;;;;;;;15.10;7.97;;;;;;;24.63;57.42;96903.28;4989897;28;20567;-64
2021/07/19 07:29:45;;;;;;;14.05;7.60;;;;;;;24.29;59.07;96900.03;4992470;28;20420;-62
2021/07/19 07:32:11;;;;;;;13.75;7.35;;;;;;;27.31;50.30;96893.38;4986460;28;20045;-65
2021/07/19 07:34:36;;;;;;;12.70;7.95;;;;;;;25.20;53.32;96903.94;4981528;28;20099;-63
2021/07/19 07:37:02;;;;;;;12.45;7.75;;;;;;;25.61;53.69;96898.38;4979514;28;20096;-64
2021/07/19 07:39:28;;;;;;;14.93;8.70;;;;;;;24.86;55.40;96900.00;4969962;28;20073;-64
2021/07/19 07:41:53;;;;;;;13.68;7.82;;;;;;;26.27;51.64;96896.03;4995475;28;20140;-64
2021/07/19 07:44:20;;;;;;;16.10;8.13;;;;;;;26.54;50.43;96897.25;4986155;28;20123;-64
2021/07/19 07:46:45;;;;;;;12.77;7.75;;;;;;;27.18;49.17;96892.78;4997395;28;20077;-63
2021/07/19 07:49:11;;;;;;;12.35;7.88;;;;;;;26.42;50.44;96896.16;4977731;28;20069;-64
2021/07/19 07:51:36;;;;;;;9.73;6.03;;;;;;;28.56;46.92;96889.22;4991576;28;20050;-63
2021/07/19 07:54:02;;;;;;;11.35;6.70;;;;;;;30.59;41.44;96880.22;4991271;28;20035;-64
2021/07/19 07:56:27;;;;;;;13.20;6.95;;;;;;;31.21;39.07;96889.34;4974012;28;20112;-63
2021/07/19 07:58:53;;;;;;;15.10;7.35;;;;;;;30.53;40.50;96884.28;4997837;28;20072;-64
2021/07/19 08:01:19;;;;;;;13.73;7.03;;;;;;;30.06;42.07;96889.88;4990803;28;20042;-64
2021/07/19 08:03:45;;;;;;;13.60;7.22;;;;;;;27.17;49.82;96885.59;4987898;28;20518;-64
2021/07/19 08:06:11;;;;;;;11.50;7.40;;;;;;;26.52;51.38;96892.13;4986447;28;20034;-64
2021/07/19 08:08:36;;;;;;;11.30;7.10;;;;;;;28.28;47.24;96874.56;4991207;28;20056;-64
2021/07/19 08:11:04;;;;;;;16.33;7.32;;;;;;;29.73;43.35;96874.00;4999522;28;20768;-64
2021/07/19 08:13:29;;;;;;;13.25;6.00;;;;;;;30.18;43.02;96879.47;4978037;28;20043;-64
2021/07/19 08:15:55;;;;;;;16.88;7.63;;;;;;;28.47;47.08;96878.03;4982176;28;20066;-64
2021/07/19 08:18:20;;;;;;;12.85;6.93;;;;;;;29.13;45.37;96881.75;4983453;28;20038;-63
2021/07/19 08:20:46;;;;;;;12.45;7.05;;;;;;;29.81;44.17;96880.81;4995948;28;20045;-63
2021/07/19 08:23:12;;;;;;;11.95;6.57;;;;;;;28.84;45.87;96882.56;4989600;28;20048;-63
2021/07/19 08:25:38;;;;;;;11.68;7.20;;;;;;;28.31;47.58;96886.91;4999970;28;20402;-63
2021/07/19 08:28:04;;;;;;;15.52;6.30;;;;;;;27.42;50.64;96885.25;4990249;28;20050;-65
2021/07/19 08:30:30;;;;;;;11.75;5.80;;;;;;;26.60;52.75;96878.53;4998480;28;20482;-63
2021/07/19 08:32:57;;;;;;;9.85;5.88;;;;;;;26.24;53.07;96882.91;4997917;28;20371;-64
2021/07/19 08:35:22;;;;;;;11.23;5.85;;;;;;;25.50;55.03;96888.34;4982496;28;20584;-62
2021/07/19 08:37:49;;;;;;;8.90;5.40;;;;;;;25.31;56.00;96890.28;4989992;28;20414;-64
2021/07/19 08:40:17;;;;;;;10.40;6.07;;;;;;;25.23;56.84;96891.81;4981024;28;20037;-64
2021/07/19 08:42:43;;;;;;;9.18;5.78;;;;;;;25.41;55.59;96884.72;4995308;28;20085;-64
2021/07/19 08:45:10;;;;;;;9.65;5.68;;;;;;;25.42;54.99;96880.69;4991193;28;20438;-64
2021/07/19 08:47:37;;;;;;;8.40;5.47;;;;;;;25.68;54.40;96884.06;4997520;28;20065;-64
2021/07/19 08:50:05;;;;;;;10.30;5.45;;;;;;;25.96;54.29;96873.69;4996629;28;20192;-64
2021/07/19 08:52:31;;;;;;;9.65;6.15;;;;;;;25.63;54.09;96885.44;4997085;28;20053;-62
2021/07/19 08:54:58;;;;;;;10.93;6.03;;;;;;;25.51;54.11;96880.72;4998106;28;20132;-64
2021/07/19 08:57:24;;;;;;;9.13;5.63;;;;;;;25.22;55.95;96875.44;4992562;28;20046;-63
2021/07/19 08:59:50;;;;;;;10.35;6.00;;;;;;;25.44;54.54;96869.78;4998160;28;20944;-64
2021/07/19 09:02:15;;;;;;;11.52;6.40;;;;;;;26.01;52.88;96866.69;4991249;28;20180;-64
2021/07/19 09:04:42;;;;;;;11.05;5.38;;;;;;;26.08;54.01;96867.16;4997934;28;20520;-64
2021/07/19 09:07:07;;;;;;;9.95;5.75;;;;;;;26.46;53.06;96867.94;4991601;28;20049;-65
2021/07/19 09:09:34;;;;;;;11.50;6.20;;;;;;;26.46;52.10;96865.13;4997656;28;20041;-63
2021/07/19 09:12:03;;;;;;;10.10;6.30;;;;;;;26.19;53.35;96855.47;4994689;28;20046;-62
2021/07/19 09:14:30;;;;;;;10.98;5.78;;;;;;;26.49;52.39;96858.56;4996517;28;20081;-63
2021/07/19 09:16:56;;;;;;;11.32;6.78;;;;;;;26.09;53.14;96848.28;4997671;28;20049;-63
2021/07/19 09:19:24;;;;;;;12.52;7.10;;;;;;;26.42;52.61;96844.84;4989390;28;20984;-63
2021/07/19 09:21:55;;;;;;;16.02;6.55;;;;;;;25.82;54.27;96844.19;4998165;28;20419;-63
2021/07/19 09:24:23;;;;;;;14.15;6.55;;;;;;;25.76;54.69;96838.38;4993073;28;20586;-62
2021/07/19 09:26:51;;;;;;;10.40;6.30;;;;;;;26.16;54.51;96833.16;4998480;28;20115;-62
2021/07/19 09:29:19;;;;;;;14.80;9.35;;;;;;;26.65;53.71;96832.19;4989966;28;20046;-63
2021/07/19 09:31:56;;;;;;;20.65;11.32;;;;;;;26.91;52.36;96837.44;4981929;28;20096;-64
2021/07/19 09:34:29;;;;;;;13.60;5.72;;;;;;;26.01;56.40;96835.81;4989018;28;20835;-64
2021/07/19 09:37:01;;;;;;;9.80;5.90;;;;;;;26.29;54.82;96834.56;4997442;28;20070;-63
2021/07/19 09:39:28;;;;;;;11.30;5.90;;;;;;;26.59;54.39;96831.25;4975060;28;20042;-63
2021/07/19 09:42:17;;;;;;;11.10;6.03;;;;;;;26.69;53.61;96832.81;4994211;28;20041;-63
2021/07/19 09:44:54;;;;;;;8.38;5.68;;;;;;;27.19;52.37;96829.69;4997684;28;20046;-64
2021/07/19 09:47:41;;;;;;;9.82;5.95;;;;;;;26.73;53.49;96824.22;4990905;28;20081;-63
2021/07/19 09:50:13;;;;;;;9.73;6.35;;;;;;;27.16;52.43;96819.41;4987737;28;20038;-64
2021/07/19 09:52:38;;;;;;;15.45;5.63;;;;;;;27.23;52.58;96819.06;4992898;28;20088;-63
2021/07/19 09:55:05;;;;;;;17.15;6.00;;;;;;;26.88;54.22;96808.25;4995024;28;20037;-64
2021/07/19 09:57:31;;;;;;;12.05;5.85;;;;;;;27.36;52.94;96811.19;4996634;28;20127;-63
2021/07/19 09:59:58;;;;;;;13.93;5.70;;;;;;;27.22;51.71;96806.25;4996006;28;20175;-63
2021/07/19 10:02:40;;;;;;;10.02;5.60;;;;;;;27.17;51.59;96809.69;4994126;28;20483;-63
2021/07/19 10:05:09;;;;;;;11.63;5.90;;;;;;;27.06;52.10;96805.38;4988406;28;20049;-64
2021/07/19 10:07:35;;;;;;;10.32;5.47;;;;;;;26.91;51.58;96810.13;4999043;28;20564;-63
2021/07/19 10:10:06;;;;;;;9.93;6.10;;;;;;;26.77;54.00;96805.94;5000360;28;20137;-63
2021/07/19 10:12:32;;;;;;;10.55;5.18;;;;;;;26.89;52.31;96804.19;4998835;28;20045;-63
2021/07/19 10:15:01;;;;;;;9.18;5.25;;;;;;;27.14;51.50;96808.63;4999971;28;20046;-63
2021/07/19 10:17:29;;;;;;;10.47;5.67;;;;;;;26.85;53.18;96798.75;4994925;28;20049;-63
2021/07/19 10:19:56;;;;;;;10.15;6.22;;;;;;;26.56;53.47;96795.66;4979175;28;20045;-63
2021/07/19 10:22:22;;;;;;;12.30;6.43;;;;;;;26.96;52.63;96795.44;4990647;28;20124;-65
2021/07/19 10:24:48;;;;;;;10.35;5.88;;;;;;;26.98;53.80;96792.16;4979569;28;20052;-64
2021/07/19 10:27:18;;;;;;;10.15;5.57;;;;;;;27.07;52.45;96798.50;4995723;28;20042;-62
2021/07/19 10:29:45;;;;;;;10.32;6.07;;;;;;;27.10;55.08;96796.78;4996284;28;20057;-62
2021/07/19 10:32:12;;;;;;;10.80;6.32;;;;;;;27.11;53.69;96791.94;4994861;28;20108;-63
2021/07/19 10:34:41;;;;;;;11.43;6.78;;;;;;;26.69;55.32;96787.88;5000913;28;20107;-64
2021/07/19 10:37:13;;;;;;;11.55;6.18;;;;;;;27.21;53.23;96785.03;4997918;28;20111;-64
2021/07/19 10:39:39;;;;;;;9.68;6.10;;;;;;;27.79;52.37;96786.53;5003124;28;20077;-64
2021/07/19 10:42:05;;;;;;;8.35;5.50;;;;;;;28.21;50.25;96787.63;4994785;28;20052;-65
2021/07/19 10:44:36;;;;;;;10.27;5.50;;;;;;;27.82;49.43;96785.59;4996619;28;20168;-63
2021/07/19 10:47:14;;;;;;;11.20;6.00;;;;;;;26.93;52.57;96785.13;4998415;28;20038;-64
2021/07/19 10:49:43;;;;;;;14.95;5.35;;;;;;;27.11;52.41;96780.69;4999531;28;20141;-63
2021/07/19 10:52:10;;;;;;;;;;;;;;;26.61;56.95;96787.41;4992154;28;20038;-64
2021/07/19 10:54:48;;;;;;;17.85;6.72;;;;;;;27.01;55.65;96786.34;4994441;28;19924;-64
2021/07/19 10:57:17;;;;;;;12.32;6.35;;;;;;;27.41;54.31;96779.63;4991356;28;20458;-64
2021/07/19 11:00:00;;;;;;;11.23;6.68;;;;;;;27.24;54.05;96778.44;4981411;28;20042;-64
2021/07/19 11:02:28;;;;;;;9.07;6.00;;;;;;;27.85;50.64;96784.63;4991139;28;20441;-63
2021/07/19 11:04:54;;;;;;;9.68;5.85;;;;;;;26.35;53.32;96774.97;4995370;28;20080;-64
2021/07/19 11:07:21;;;;;;;8.57;4.93;;;;;;;27.18;46.26;96771.91;4992947;28;20604;-63
2021/07/19 11:09:47;;;;;;;15.65;5.80;;;;;;;26.85;52.73;96773.47;4992397;28;20395;-64
2021/07/19 11:12:17;;;;;;;10.50;6.07;;;;;;;26.28;49.66;96768.44;4988815;28;20034;-63
2021/07/19 11:14:47;;;;;;;10.57;5.40;;;;;;;25.83;49.28;96772.78;4995326;28;20042;-64
2021/07/19 11:17:14;;;;;;;9.05;4.40;;;;;;;26.77;48.85;96763.78;4992300;28;20049;-63
2021/07/19 11:19:41;;;;;;;14.77;7.03;;;;;;;26.76;47.43;96762.25;4998584;28;20100;-62
2021/07/19 11:22:08;;;;;;;9.02;5.25;;;;;;;26.71;46.95;96762.91;4992856;28;20044;-64